Austin Golding — WDC8113 — position and weather

sailwx.info

Track history (hours):
 
Tides and Currents Weather Stations Pressure Air Temp Water Temp Dewpoint Dewpoint Depression Visibility Wind Speed Wind Dir Waves Ship Positions

Austin Golding

Owner: Golding Barge Line, Inc., Vicksburg, MS. More information available from US FCC via Universal Licensing System and Coast Guard Vessel Documentation Center.

Last reported at 2018-Aug-14 07:53 UTC. Time now 2018-Aug-15 12:38 UTC.
Position N 30°26' W 086°19'.

Length 211 m; draft 2.9 m.

Type: . MMSI: 367081860.

Date/timePositionNaut miles runAvg speedWind from/ knotsBaromVisibWave heightAir tempDewpointWater temp
2018-Aug-14 07:53N 30°26' W 086°19'2 5.6
2018-Aug-14 07:30N 30°26' W 086°21'3 5.7
2018-Aug-14 06:57N 30°26' W 086°25'3 5.7
2018-Aug-14 06:30N 30°26' W 086°28'3 5.4
2018-Aug-14 06:00N 30°26' W 086°31'9 3.3
2018-Aug-14 03:21N 30°24' W 086°41'2 4.4
2018-Aug-14 03:00N 30°24' W 086°43'2 4.6
2018-Aug-14 02:30N 30°24' W 086°45'3 5.1
2018-Aug-14 02:00N 30°24' W 086°48'3 5.2
2018-Aug-14 01:30N 30°24' W 086°51'3 5.1
2018-Aug-14 01:00N 30°24' W 086°54'3 5.4
2018-Aug-14 00:30N 30°23' W 086°57'  
2018-Aug-09 11:34N 30°23' W 086°57'0 6.3
2018-Aug-09 11:30N 30°23' W 086°56'3 5.9
2018-Aug-09 11:00N 30°24' W 086°53'3 5.7
2018-Aug-09 10:30N 30°24' W 086°50'3 6.2
2018-Aug-09 10:00N 30°24' W 086°46'3 5.8
2018-Aug-09 09:30N 30°24' W 086°43'10 5.9
2018-Aug-09 07:48N 30°25' W 086°31'2 6.4
2018-Aug-09 07:30N 30°26' W 086°29'3 6.7
2018-Aug-09 07:00N 30°26' W 086°25'3 6.6
2018-Aug-09 06:30N 30°26' W 086°21'3 0.1
2018-Aug-08 00:48N 30°26' W 086°18'2 6.1
2018-Aug-08 00:30N 30°26' W 086°20'3 6.1
2018-Aug-08 00:00N 30°26' W 086°23'3 6.2
2018-Aug-07 23:30N 30°26' W 086°27'3 6.1
2018-Aug-07 22:59N 30°26' W 086°30'9 4.8
2018-Aug-07 21:01N 30°24' W 086°41'0 4.4
2018-Aug-07 21:00N 30°24' W 086°41'2 4.5
2018-Aug-07 20:30N 30°24' W 086°44'2 4.9
2018-Aug-07 20:00N 30°24' W 086°47'3 5.3
2018-Aug-07 19:30N 30°24' W 086°50'3 5.2
2018-Aug-07 19:00N 30°24' W 086°53'3 5.4
2018-Aug-07 18:30N 30°23' W 086°56'  
Track history (hours):
 
Tides and Currents Weather Stations Pressure Air Temp Water Temp Dewpoint Dewpoint Depression Visibility Wind Speed Wind Dir Waves Ship Positions

Austin Golding

Owner: Golding Barge Line, Inc., Vicksburg, MS. More information available from US FCC via Universal Licensing System and Coast Guard Vessel Documentation Center.

Last reported at 2018-Aug-14 07:53 UTC. Time now 2018-Aug-15 12:38 UTC.
Position N 30°26' W 086°19'.

Length 211 m; draft 2.9 m.

Type: . MMSI: 367081860.

Date/timePositionNaut miles runAvg speedWind from/ knotsBaromVisibWave heightAir tempDewpointWater temp
2018-Aug-14 07:53N 30°26' W 086°19'2 5.6
2018-Aug-14 07:30N 30°26' W 086°21'3 5.7
2018-Aug-14 06:57N 30°26' W 086°25'3 5.7
2018-Aug-14 06:30N 30°26' W 086°28'3 5.4
2018-Aug-14 06:00N 30°26' W 086°31'9 3.3
2018-Aug-14 03:21N 30°24' W 086°41'2 4.4
2018-Aug-14 03:00N 30°24' W 086°43'2 4.6
2018-Aug-14 02:30N 30°24' W 086°45'3 5.1
2018-Aug-14 02:00N 30°24' W 086°48'3 5.2
2018-Aug-14 01:30N 30°24' W 086°51'3 5.1
2018-Aug-14 01:00N 30°24' W 086°54'3 5.4
2018-Aug-14 00:30N 30°23' W 086°57'  
2018-Aug-09 11:34N 30°23' W 086°57'0 6.3
2018-Aug-09 11:30N 30°23' W 086°56'3 5.9
2018-Aug-09 11:00N 30°24' W 086°53'3 5.7
2018-Aug-09 10:30N 30°24' W 086°50'3 6.2
2018-Aug-09 10:00N 30°24' W 086°46'3 5.8
2018-Aug-09 09:30N 30°24' W 086°43'10 5.9
2018-Aug-09 07:48N 30°25' W 086°31'2 6.4
2018-Aug-09 07:30N 30°26' W 086°29'3 6.7
2018-Aug-09 07:00N 30°26' W 086°25'3 6.6
2018-Aug-09 06:30N 30°26' W 086°21'3 0.1
2018-Aug-08 00:48N 30°26' W 086°18'2 6.1
2018-Aug-08 00:30N 30°26' W 086°20'3 6.1
2018-Aug-08 00:00N 30°26' W 086°23'3 6.2
2018-Aug-07 23:30N 30°26' W 086°27'3 6.1
2018-Aug-07 22:59N 30°26' W 086°30'9 4.8
2018-Aug-07 21:01N 30°24' W 086°41'0 4.4
2018-Aug-07 21:00N 30°24' W 086°41'2 4.5
2018-Aug-07 20:30N 30°24' W 086°44'2 4.9
2018-Aug-07 20:00N 30°24' W 086°47'3 5.3
2018-Aug-07 19:30N 30°24' W 086°50'3 5.2
2018-Aug-07 19:00N 30°24' W 086°53'3 5.4
2018-Aug-07 18:30N 30°23' W 086°56'  

Dump ship's entire track history